This is the latest recevied weather packets stored in our database for station/object K4ZZR. If no packets are shown the sender has not sent any weather packets the latest 10 day(s).
| Time | Temp. | Humidity | Pressure | Rain* | Wind** | Luminosity | Snow |
|---|---|---|---|---|---|---|---|
| 1777514454 | 25° C | 83% | 1013.1 hPa | 0 mm | - | 0 W/m² | - |
| 1777514150 | 25° C | 83% | 1013.1 hPa | 0 mm | - | 0 W/m² | - |
| 1777513847 | 25° C | 83% | 1013.1 hPa | 0 mm | - | 0 W/m² | - |
| 1777513544 | 25° C | 82% | 1013.2 hPa | 0 mm | - | 0 W/m² | - |
| 1777512937 | 25° C | 82% | 1013 hPa | 0 mm | - | 0 W/m² | - |
| 1777512634 | 25° C | 82% | 1012.9 hPa | 0 mm | - | 0 W/m² | - |
| 1777512331 | 25° C | 82% | 1012.9 hPa | 0 mm | - | 0 W/m² | - |
| 1777512027 | 25° C | 81% | 1012.7 hPa | 0 mm | - | 0 W/m² | - |
| 1777511726 | 25° C | 80% | 1012.7 hPa | 0 mm | - | 0 W/m² | - |
| 1777511423 | 25° C | 81% | 1013 hPa | 0 mm | - | 0 W/m² | - |
| 1777511120 | 25° C | 80% | 1013 hPa | 0 mm | - | 0 W/m² | - |
| 1777510512 | 25° C | 80% | 1012.9 hPa | 0 mm | - | 0 W/m² | - |
| 1777509297 | 25.56° C | 79% | 1012.4 hPa | 0 mm | - | 0 W/m² | - |
| 1777508085 | 25.56° C | 79% | 1012.1 hPa | 0 mm | - | 0 W/m² | - |
| 1777507782 | 25.56° C | 79% | 1012.2 hPa | 0 mm | - | 0 W/m² | - |
| 1777507176 | 25.56° C | 79% | 1011.7 hPa | 0 mm | - | 2 W/m² | - |
| 1777505047 | 26.11° C | 75% | 1011.8 hPa | 0 mm | - | 36 W/m² | - |
| 1777502316 | 27.22° C | 71% | 1012.1 hPa | 0 mm | - | 134 W/m² | - |
| 1777502012 | 26.67° C | 72% | 1012.5 hPa | 0 mm | - | 151 W/m² | - |
| 1777501709 | 27.22° C | 72% | 1012.1 hPa | 0 mm | - | 162 W/m² | - |
| 1777501407 | 26.67° C | 73% | 1012.1 hPa | 0 mm | - | 171 W/m² | - |
| 1777501104 | 27.22° C | 73% | 1012.2 hPa | 0 mm | - | 178 W/m² | - |
| 1777500803 | 27.22° C | 74% | 1012.4 hPa | 0 mm | - | 195 W/m² | - |
| 1777500500 | 27.22° C | 74% | 1012.1 hPa | 0 mm | - | 230 W/m² | - |
| 1777500196 | 27.22° C | 75% | 1012.1 hPa | 0 mm | - | 226 W/m² | - |
* Rain latest hour (hover to see other rain measurements)
** Current wind speed in m/s (hover to see current wind gust speed)